Time;durP1;ratioP1;P1;durP2;ratioP2;P2;SDS_P1;SDS_P2;PMS_P1;PMS_P2;Temp;Humidity;BMP_temperature;BMP_pressure;BME280_temperature;BME280_humidity;BME280_pressure;Samples;Min_cycle;Max_cycle;Signal;HPM_P1;HPM_P2
2023/04/04 00:01:08;;;;;;;7.63;4.47;;;;;;;;;;5018000;28;20022;-61
2023/04/04 00:03:33;;;;;;;6.05;4.13;;;;;;;;;;5017807;28;20034;-61
2023/04/04 00:05:59;;;;;;;6.90;4.32;;;;;;;;;;5017731;28;20026;-61
2023/04/04 00:08:24;;;;;;;4.10;3.58;;;;;;;;;;5018135;28;20552;-61
2023/04/04 00:10:55;;;;;;;4.82;3.83;;;;;;;;;;5017686;28;20054;-61
2023/04/04 00:13:21;;;;;;;6.22;4.13;;;;;;;;;;5017630;28;20041;-61
2023/04/04 00:15:46;;;;;;;4.72;3.60;;;;;;;;;;5017502;28;20018;-61
2023/04/04 00:18:11;;;;;;;5.68;3.78;;;;;;;;;;5017647;28;20034;-61
2023/04/04 00:20:37;;;;;;;5.28;3.72;;;;;;;;;;5017428;28;20036;-61
2023/04/04 00:23:02;;;;;;;3.95;3.20;;;;;;;;;;5017721;28;20527;-61
2023/04/04 00:25:27;;;;;;;5.15;3.97;;;;;;;;;;5017036;28;20033;-61
2023/04/04 00:27:53;;;;;;;4.95;3.47;;;;;;;;;;5016247;28;20054;-60
2023/04/04 00:30:18;;;;;;;4.93;3.80;;;;;;;;;;5017332;28;20104;-68
2023/04/04 00:32:44;;;;;;;5.60;3.50;;;;;;;;;;5016280;28;20026;-67
2023/04/04 00:35:09;;;;;;;4.20;3.20;;;;;;;;;;5016162;28;20503;-67
2023/04/04 00:37:35;;;;;;;4.10;3.55;;;;;;;;;;4999302;28;20030;-67
2023/04/04 00:40:02;;;;;;;4.35;3.53;;;;;;;;;;5017161;28;20033;-69
2023/04/04 00:42:27;;;;;;;4.05;3.15;;;;;;;;;;5017773;28;20037;-66
2023/04/04 00:44:53;;;;;;;5.88;3.67;;;;;;;;;;5016971;28;20036;-66
2023/04/04 00:47:22;;;;;;;3.88;3.53;;;;;;;;;;5016839;28;20464;-66
2023/04/04 00:49:47;;;;;;;3.65;3.30;;;;;;;;;;5015971;28;20372;-67
2023/04/04 00:52:13;;;;;;;3.92;3.38;;;;;;;;;;5017165;28;20042;-66
2023/04/04 00:54:38;;;;;;;4.38;3.20;;;;;;;;;;5014694;28;20046;-67
2023/04/04 00:57:05;;;;;;;3.92;3.22;;;;;;;;;;5015686;28;20026;-67
2023/04/04 00:59:31;;;;;;;4.30;3.45;;;;;;;;;;5015667;28;20065;-67
2023/04/04 01:01:57;;;;;;;4.63;3.60;;;;;;;;;;5016404;28;20069;-67
2023/04/04 01:04:23;;;;;;;4.75;3.30;;;;;;;;;;5016999;28;20030;-67
2023/04/04 01:06:49;;;;;;;4.68;3.25;;;;;;;;;;5016353;28;20068;-67
2023/04/04 01:09:14;;;;;;;5.97;4.30;;;;;;;;;;5015094;28;20029;-67
2023/04/04 01:11:40;;;;;;;4.50;3.13;;;;;;;;;;5016654;28;20423;-67
2023/04/04 01:14:06;;;;;;;7.05;4.22;;;;;;;;;;5015251;28;20361;-67
2023/04/04 01:16:32;;;;;;;6.20;4.07;;;;;;;;;;5014933;28;20068;-68
2023/04/04 01:18:58;;;;;;;3.55;3.15;;;;;;;;;;5016215;28;20380;-69
2023/04/04 01:21:25;;;;;;;4.80;3.50;;;;;;;;;;5014832;28;20036;-61
2023/04/04 01:24:03;;;;;;;5.82;3.60;;;;;;;;;;5014808;28;20037;-61
2023/04/04 01:26:49;;;;;;;4.20;3.03;;;;;;;;;;5015158;28;20029;-61
2023/04/04 01:29:16;;;;;;;5.45;3.92;;;;;;;;;;5014734;28;20387;-61
2023/04/04 01:31:45;;;;;;;6.78;4.30;;;;;;;;;;5014620;28;20022;-61
2023/04/04 01:34:14;;;;;;;5.88;3.60;;;;;;;;;;5016186;28;20014;-61
2023/04/04 01:36:45;;;;;;;4.50;3.58;;;;;;;;;;5014711;28;20029;-61
2023/04/04 01:39:23;;;;;;;4.82;3.88;;;;;;;;;;5014991;28;20033;-60
2023/04/04 01:41:49;;;;;;;5.32;4.18;;;;;;;;;;5016455;28;20074;-60
2023/04/04 01:44:16;;;;;;;5.28;4.32;;;;;;;;;;5030887;28;20029;-60
2023/04/04 01:46:42;;;;;;;4.35;3.65;;;;;;;;;;5014547;28;20080;-60
2023/04/04 01:49:09;;;;;;;4.13;3.15;;;;;;;;;;5014270;28;20022;-62
2023/04/04 01:51:34;;;;;;;4.32;3.53;;;;;;;;;;5015754;28;20026;-60
2023/04/04 01:53:59;;;;;;;6.05;4.28;;;;;;;;;;5014094;28;20124;-60
2023/04/04 01:56:27;;;;;;;4.03;3.58;;;;;;;;;;5015837;28;20096;-60
2023/04/04 01:58:52;;;;;;;5.60;4.18;;;;;;;;;;5014710;28;20030;-59
2023/04/04 02:01:18;;;;;;;4.40;3.35;;;;;;;;;;5014093;28;20026;-60
2023/04/04 02:03:44;;;;;;;4.95;3.08;;;;;;;;;;5014636;28;20066;-60
2023/04/04 02:06:09;;;;;;;3.03;2.72;;;;;;;;;;5014531;28;20052;-60
2023/04/04 02:08:35;;;;;;;2.95;2.67;;;;;;;;;;5013897;28;20034;-60
2023/04/04 02:11:02;;;;;;;3.22;2.92;;;;;;;;;;4997951;28;20113;-60
2023/04/04 02:13:27;;;;;;;3.95;3.22;;;;;;;;;;5015433;28;20066;-60
2023/04/04 02:15:54;;;;;;;3.67;3.38;;;;;;;;;;5013805;28;20073;-60
2023/04/04 02:18:20;;;;;;;4.15;3.22;;;;;;;;;;5015442;28;20033;-61
2023/04/04 02:20:45;;;;;;;4.38;3.50;;;;;;;;;;5014067;28;20368;-61
2023/04/04 02:23:10;;;;;;;3.75;3.40;;;;;;;;;;5015192;28;20036;-61
2023/04/04 02:25:36;;;;;;;6.88;3.72;;;;;;;;;;5013759;28;20117;-60
2023/04/04 02:28:04;;;;;;;5.70;3.50;;;;;;;;;;5015512;28;20121;-60
2023/04/04 02:30:29;;;;;;;4.70;3.60;;;;;;;;;;5013806;28;20018;-60
2023/04/04 02:33:00;;;;;;;5.82;4.20;;;;;;;;;;5015126;28;20403;-60
2023/04/04 02:35:26;;;;;;;4.63;3.92;;;;;;;;;;5013481;28;20534;-60
2023/04/04 02:37:55;;;;;;;6.57;4.88;;;;;;;;;;5014211;28;20076;-60
2023/04/04 02:40:25;;;;;;;5.43;3.92;;;;;;;;;;5014122;28;20540;-60
2023/04/04 02:42:52;;;;;;;5.63;3.83;;;;;;;;;;5013469;28;20113;-60
2023/04/04 02:45:19;;;;;;;5.03;4.13;;;;;;;;;;5013359;28;20129;-60
2023/04/04 02:47:53;;;;;;;7.05;4.93;;;;;;;;;;5021646;23;20325;-67
2023/04/04 02:50:25;;;;;;;5.40;4.20;;;;;;;;;;5023955;22;20566;-61
2023/04/04 02:55:35;;;;;;;12.02;10.73;;;;;;;;;;5053030;22;20133;-61
2023/04/04 02:58:01;;;;;;;6.05;5.20;;;;;;;;;;5005474;23;20054;-67
2023/04/04 03:00:27;;;;;;;4.85;4.30;;;;;;;;;;5032768;28;20028;-68
2023/04/04 03:02:55;;;;;;;7.22;4.40;;;;;;;;;;5016304;28;20021;-66
2023/04/04 03:05:26;;;;;;;5.32;4.20;;;;;;;;;;5016297;28;20076;-66
2023/04/04 03:07:55;;;;;;;6.03;3.58;;;;;;;;;;5016137;28;20025;-71
2023/04/04 03:10:24;;;;;;;5.43;4.20;;;;;;;;;;5016179;28;20545;-66
2023/04/04 03:12:50;;;;;;;4.57;4.00;;;;;;;;;;5016722;28;20057;-67
2023/04/04 03:15:16;;;;;;;5.65;4.18;;;;;;;;;;5016405;28;20100;-67
2023/04/04 03:17:42;;;;;;;4.50;4.10;;;;;;;;;;5016203;28;20080;-67
2023/04/04 03:20:07;;;;;;;4.43;3.78;;;;;;;;;;5034056;28;20064;-67
2023/04/04 03:22:33;;;;;;;6.43;3.80;;;;;;;;;;5016178;28;20430;-67
2023/04/04 03:25:00;;;;;;;5.00;3.88;;;;;;;;;;5016394;28;20037;-67
2023/04/04 03:27:26;;;;;;;4.05;3.50;;;;;;;;;;5015867;28;20044;-67
2023/04/04 03:29:53;;;;;;;5.97;4.43;;;;;;;;;;5016357;28;20136;-67
2023/04/04 03:32:18;;;;;;;4.05;3.72;;;;;;;;;;5032721;28;20109;-61
2023/04/04 03:34:44;;;;;;;5.25;3.67;;;;;;;;;;5032353;28;20030;-60
2023/04/04 03:37:10;;;;;;;5.55;4.03;;;;;;;;;;5015776;28;20022;-59
2023/04/04 03:39:35;;;;;;;4.57;3.83;;;;;;;;;;5015860;28;20464;-59
2023/04/04 03:42:02;;;;;;;5.18;3.95;;;;;;;;;;5032220;28;20489;-59
2023/04/04 03:44:27;;;;;;;4.82;4.20;;;;;;;;;;5032213;28;20068;-60
2023/04/04 03:46:53;;;;;;;6.28;3.60;;;;;;;;;;5031801;28;20404;-62
2023/04/04 03:49:19;;;;;;;4.53;4.05;;;;;;;;;;5015926;28;20052;-61
2023/04/04 03:51:45;;;;;;;4.10;3.55;;;;;;;;;;5015611;28;20068;-61
2023/04/04 03:54:10;;;;;;;5.60;4.13;;;;;;;;;;5033444;28;20017;-61
2023/04/04 03:56:36;;;;;;;4.82;3.78;;;;;;;;;;5033366;28;20030;-61
2023/04/04 03:59:04;;;;;;;4.10;3.67;;;;;;;;;;5015515;28;20054;-59
2023/04/04 04:01:29;;;;;;;5.18;3.30;;;;;;;;;;5033052;28;20036;-61
2023/04/04 04:03:55;;;;;;;4.97;3.80;;;;;;;;;;5015626;28;20037;-61
2023/04/04 04:06:20;;;;;;;5.63;4.72;;;;;;;;;;5015534;28;20048;-59
2023/04/04 04:08:47;;;;;;;4.45;3.60;;;;;;;;;;5014287;28;20080;-60
2023/04/04 04:11:12;;;;;;;5.20;3.88;;;;;;;;;;5008277;28;20026;-58
2023/04/04 04:13:39;;;;;;;4.70;3.38;;;;;;;;;;4996065;28;20692;-58
2023/04/04 04:16:04;;;;;;;5.25;4.35;;;;;;;;;;4995702;28;20451;-58
2023/04/04 04:18:30;;;;;;;5.07;3.22;;;;;;;;;;5013283;28;20025;-58
2023/04/04 04:20:57;;;;;;;4.20;3.67;;;;;;;;;;4995672;28;20046;-58
2023/04/04 04:23:23;;;;;;;3.78;3.40;;;;;;;;;;4995931;28;20164;-58
2023/04/04 04:25:50;;;;;;;4.88;3.50;;;;;;;;;;4999167;28;20021;-58
2023/04/04 04:28:18;;;;;;;4.20;3.80;;;;;;;;;;5015736;28;20502;-58
2023/04/04 04:30:45;;;;;;;5.10;3.30;;;;;;;;;;5018113;28;20108;-58
2023/04/04 04:33:12;;;;;;;5.15;4.00;;;;;;;;;;5018774;28;20369;-58
2023/04/04 04:35:49;;;;;;;4.25;3.70;;;;;;;;;;5004179;28;20029;-58
2023/04/04 04:38:14;;;;;;;4.40;3.60;;;;;;;;;;5035673;28;20120;-58
2023/04/04 04:40:40;;;;;;;4.15;3.72;;;;;;;;;;5037013;28;20067;-58
2023/04/04 04:43:14;;;;;;;4.57;3.53;;;;;;;;;;5019214;28;20030;-58
2023/04/04 04:45:40;;;;;;;3.70;3.40;;;;;;;;;;5036761;28;20037;-59
2023/04/04 04:48:08;;;;;;;6.47;3.90;;;;;;;;;;5018922;28;20086;-57
2023/04/04 04:50:41;;;;;;;5.53;3.53;;;;;;;;;;5018864;28;20367;-58
2023/04/04 04:53:09;;;;;;;3.50;3.20;;;;;;;;;;5018974;28;20064;-57
2023/04/04 04:55:34;;;;;;;5.10;2.90;;;;;;;;;;5018961;28;20056;-57
2023/04/04 04:58:05;;;;;;;13.40;7.70;;;;;;;;;;5015385;28;20117;-65
2023/04/04 05:00:31;;;;;;;8.88;6.45;;;;;;;;;;5031570;28;20041;-57
2023/04/04 05:02:59;;;;;;;12.70;10.10;;;;;;;;;;5016068;28;20026;-65
2023/04/04 05:05:33;;;;;;;4.30;3.90;;;;;;;;;;5016199;28;20429;-65
2023/04/04 05:08:03;;;;;;;4.13;3.45;;;;;;;;;;5015185;28;20053;-59
2023/04/04 05:10:29;;;;;;;4.72;4.25;;;;;;;;;;5015441;28;20038;-66
2023/04/04 05:12:58;;;;;;;9.82;7.20;;;;;;;;;;5015198;28;20472;-66
2023/04/04 05:15:28;;;;;;;23.88;11.07;;;;;;;;;;5031346;28;20088;-67
2023/04/04 05:17:54;;;;;;;36.88;14.27;;;;;;;;;;5015093;28;20029;-67
2023/04/04 05:20:20;;;;;;;36.83;14.23;;;;;;;;;;5014957;28;20032;-67
2023/04/04 05:22:47;;;;;;;86.55;28.23;;;;;;;;;;4998512;28;20152;-66
2023/04/04 05:25:17;;;;;;;27.35;9.48;;;;;;;;;;5014917;28;20046;-67
2023/04/04 05:27:47;;;;;;;71.13;19.75;;;;;;;;;;5025843;28;20469;-68
2023/04/04 05:30:15;;;;;;;57.60;15.55;;;;;;;;;;4995020;28;20026;-69
2023/04/04 05:32:52;;;;;;;97.07;38.08;;;;;;;;;;4995451;28;20380;-68
2023/04/04 05:35:24;;;;;;;;;;;;;;;;;;4992994;28;20027;-69
2023/04/04 05:37:50;;;;;;;239.55;76.63;;;;;;;;;;4993066;28;20280;-69
2023/04/04 05:40:17;;;;;;;105.53;34.05;;;;;;;;;;4975907;28;20034;-69
2023/04/04 05:42:57;;;;;;;32.85;12.23;;;;;;;;;;4991866;28;20033;-68
2023/04/04 05:45:27;;;;;;;74.68;23.08;;;;;;;;;;4991810;28;20125;-68
2023/04/04 05:47:53;;;;;;;7.97;4.25;;;;;;;;;;4992800;28;20133;-69
2023/04/04 05:50:21;;;;;;;32.28;11.38;;;;;;;;;;4992245;28;20011;-69
2023/04/04 05:52:47;;;;;;;61.85;21.33;;;;;;;;;;4976437;28;20039;-68
2023/04/04 05:55:13;;;;;;;73.68;20.63;;;;;;;;;;4992787;28;20385;-68
2023/04/04 05:57:46;;;;;;;32.60;11.32;;;;;;;;;;4995052;28;20090;-69
2023/04/04 06:00:13;;;;;;;6.45;3.88;;;;;;;;;;4995994;28;20399;-69
2023/04/04 06:02:40;;;;;;;25.75;8.52;;;;;;;;;;5013553;28;20045;-68
2023/04/04 06:05:08;;;;;;;47.75;18.35;;;;;;;;;;4996593;28;20037;-69
2023/04/04 06:07:37;;;;;;;47.75;19.35;;;;;;;;;;4997591;28;20033;-68
2023/04/04 06:10:03;;;;;;;52.05;21.00;;;;;;;;;;5014862;28;20044;-68
2023/04/04 06:12:30;;;;;;;19.30;9.23;;;;;;;;;;4981189;28;20026;-68
2023/04/04 06:14:55;;;;;;;32.25;13.52;;;;;;;;;;5014853;28;20080;-68
2023/04/04 06:17:22;;;;;;;32.15;15.82;;;;;;;;;;4997142;28;20049;-69
2023/04/04 06:19:47;;;;;;;21.35;10.00;;;;;;;;;;4997208;28;20135;-68
2023/04/04 06:22:14;;;;;;;20.55;10.70;;;;;;;;;;4997217;28;20069;-68
2023/04/04 06:24:45;;;;;;;24.67;12.48;;;;;;;;;;4997054;28;20107;-67
2023/04/04 06:27:11;;;;;;;21.67;12.15;;;;;;;;;;4996883;28;20538;-68
2023/04/04 06:29:37;;;;;;;9.23;5.78;;;;;;;;;;4997216;28;20112;-68
2023/04/04 06:32:04;;;;;;;16.55;9.80;;;;;;;;;;4996858;28;20021;-68
2023/04/04 06:34:37;;;;;;;6.38;5.25;;;;;;;;;;4996965;28;20403;-68
2023/04/04 06:37:02;;;;;;;7.30;3.72;;;;;;;;;;4996829;28;20026;-68
2023/04/04 06:39:34;;;;;;;10.63;6.80;;;;;;;;;;4996764;28;20038;-69
2023/04/04 06:42:03;;;;;;;4.22;3.83;;;;;;;;;;4996682;28;20025;-69
2023/04/04 06:44:31;;;;;;;7.75;5.53;;;;;;;;;;4996680;28;20014;-68
2023/04/04 06:46:58;;;;;;;4.13;3.72;;;;;;;;;;5014310;28;20084;-68
2023/04/04 06:49:23;;;;;;;8.35;7.18;;;;;;;;;;5014249;28;20018;-68
2023/04/04 06:51:50;;;;;;;7.43;6.65;;;;;;;;;;4996321;28;20383;-69
2023/04/04 06:54:15;;;;;;;4.15;3.45;;;;;;;;;;4996341;28;20026;-69
2023/04/04 06:56:40;;;;;;;7.25;3.95;;;;;;;;;;4996516;28;20032;-70
2023/04/04 06:59:10;;;;;;;6.28;4.22;;;;;;;;;;4996402;28;20057;-69
2023/04/04 07:01:35;;;;;;;7.47;4.03;;;;;;;;;;4996742;28;20026;-69
2023/04/04 07:04:01;;;;;;;4.50;4.10;;;;;;;;;;5013941;28;20033;-68
2023/04/04 07:06:28;;;;;;;4.00;3.70;;;;;;;;;;5013799;28;20056;-69
2023/04/04 07:08:54;;;;;;;4.68;3.28;;;;;;;;;;5013976;28;20030;-69
2023/04/04 07:11:22;;;;;;;5.43;4.30;;;;;;;;;;4996787;28;20093;-68
2023/04/04 07:13:48;;;;;;;7.00;4.38;;;;;;;;;;5013902;28;20088;-69
2023/04/04 07:16:15;;;;;;;3.85;3.38;;;;;;;;;;5013846;28;20464;-59
2023/04/04 07:18:40;;;;;;;3.63;3.38;;;;;;;;;;5013842;28;20036;-59
2023/04/04 07:21:05;;;;;;;7.15;4.35;;;;;;;;;;5013762;28;20034;-60
2023/04/04 07:23:31;;;;;;;6.30;3.50;;;;;;;;;;4996178;28;20092;-60
2023/04/04 07:25:56;;;;;;;6.05;3.85;;;;;;;;;;5013620;28;20037;-60
2023/04/04 07:28:22;;;;;;;8.10;4.15;;;;;;;;;;5013462;28;20243;-59
2023/04/04 07:30:47;;;;;;;7.07;3.20;;;;;;;;;;5013624;28;20034;-59
2023/04/04 07:33:12;;;;;;;4.15;3.15;;;;;;;;;;4995977;28;20030;-59
2023/04/04 07:35:38;;;;;;;4.05;3.25;;;;;;;;;;5013557;28;20021;-59
2023/04/04 07:38:03;;;;;;;7.65;3.97;;;;;;;;;;5013461;28;20034;-59
2023/04/04 07:40:29;;;;;;;3.55;3.25;;;;;;;;;;5013550;28;20128;-59
2023/04/04 07:42:55;;;;;;;3.15;2.90;;;;;;;;;;5013563;28;20140;-59
2023/04/04 07:45:23;;;;;;;4.13;3.13;;;;;;;;;;5013574;28;20117;-59
2023/04/04 07:47:48;;;;;;;1.67;1.58;;;;;;;;;;5013364;28;20105;-60
2023/04/04 07:50:14;;;;;;;2.67;2.25;;;;;;;;;;5013492;28;20164;-59
2023/04/04 07:52:40;;;;;;;3.72;2.95;;;;;;;;;;4995791;28;20373;-59
2023/04/04 07:55:06;;;;;;;2.67;2.22;;;;;;;;;;5013495;28;20029;-59
2023/04/04 07:58:04;;;;;;;4.30;3.13;;;;;;;;;;5018253;23;20044;-60
2023/04/04 08:00:30;;;;;;;2.50;2.30;;;;;;;;;;4972621;28;20053;-59
2023/04/04 08:03:00;;;;;;;3.58;2.78;;;;;;;;;;4974482;28;20034;-59
2023/04/04 08:05:25;;;;;;;4.22;2.70;;;;;;;;;;4976902;28;20030;-59
2023/04/04 08:07:51;;;;;;;3.25;2.20;;;;;;;;;;4960835;28;20027;-59
2023/04/04 08:10:17;;;;;;;4.22;3.03;;;;;;;;;;4978189;28;20026;-60
2023/04/04 08:12:43;;;;;;;2.88;2.25;;;;;;;;;;4978014;28;20050;-59
2023/04/04 08:15:10;;;;;;;2.97;2.47;;;;;;;;;;4978057;28;20114;-59
2023/04/04 08:17:36;;;;;;;6.00;5.05;;;;;;;;;;4977957;28;20034;-60
2023/04/04 08:20:02;;;;;;;3.45;2.85;;;;;;;;;;4977958;28;20038;-59
2023/04/04 08:22:28;;;;;;;3.90;3.60;;;;;;;;;;4977876;28;20436;-60
2023/04/04 08:24:53;;;;;;;2.17;1.98;;;;;;;;;;4977841;28;20031;-59
2023/04/04 08:27:19;;;;;;;3.88;3.05;;;;;;;;;;4977736;28;20448;-60
2023/04/04 08:29:45;;;;;;;3.53;2.90;;;;;;;;;;4977683;28;20049;-60
2023/04/04 08:32:11;;;;;;;1.90;1.80;;;;;;;;;;4960505;28;20027;-60
2023/04/04 08:34:37;;;;;;;3.50;2.72;;;;;;;;;;4977658;28;20496;-60
2023/04/04 08:37:03;;;;;;;5.30;2.97;;;;;;;;;;4977848;28;20022;-60
2023/04/04 08:39:28;;;;;;;5.43;3.38;;;;;;;;;;4976358;28;20035;-60
2023/04/04 08:42:04;;;;;;;2.38;1.98;;;;;;;;;;4977542;28;20472;-60
2023/04/04 08:44:30;;;;;;;3.92;2.70;;;;;;;;;;4977566;28;20121;-59
2023/04/04 08:46:58;;;;;;;3.95;2.53;;;;;;;;;;4976115;28;20090;-60
2023/04/04 08:49:25;;;;;;;2.53;2.30;;;;;;;;;;4977345;28;20027;-60
2023/04/04 08:51:52;;;;;;;3.63;2.15;;;;;;;;;;4977358;28;20019;-60
2023/04/04 08:54:19;;;;;;;1.83;1.65;;;;;;;;;;4959911;28;20392;-60
2023/04/04 08:56:44;;;;;;;2.40;2.20;;;;;;;;;;4977213;28;20101;-60
2023/04/04 08:59:17;;;;;;;5.38;3.58;;;;;;;;;;4977137;28;20501;-60
2023/04/04 09:01:43;;;;;;;6.88;4.78;;;;;;;;;;4977105;28;20034;-60
2023/04/04 09:04:09;;;;;;;3.45;2.15;;;;;;;;;;4977161;28;20033;-60
2023/04/04 09:06:35;;;;;;;4.03;2.22;;;;;;;;;;4975877;28;20034;-60
2023/04/04 09:09:02;;;;;;;1.98;1.83;;;;;;;;;;4977069;28;20035;-60
2023/04/04 09:11:30;;;;;;;5.22;1.95;;;;;;;;;;4977130;28;20038;-60
2023/04/04 09:13:56;;;;;;;2.28;2.00;;;;;;;;;;4977006;28;20014;-60
2023/04/04 09:16:22;;;;;;;1.60;1.50;;;;;;;;;;4976324;28;20654;-60
2023/04/04 09:18:47;;;;;;;3.70;2.40;;;;;;;;;;4977138;28;20437;-60
2023/04/04 09:21:12;;;;;;;1.95;1.85;;;;;;;;;;4976861;28;20061;-60
2023/04/04 09:23:38;;;;;;;1.83;1.67;;;;;;;;;;4976819;28;20027;-59
2023/04/04 09:26:04;;;;;;;1.75;1.65;;;;;;;;;;4976673;28;20397;-60
2023/04/04 09:28:30;;;;;;;1.52;1.40;;;;;;;;;;4975382;28;20027;-60
2023/04/04 09:30:55;;;;;;;4.00;3.70;;;;;;;;;;4976631;28;20034;-60
2023/04/04 09:33:22;;;;;;;3.78;3.47;;;;;;;;;;4976595;28;20022;-60
2023/04/04 09:35:51;;;;;;;1.92;1.83;;;;;;;;;;4976602;28;20377;-60
2023/04/04 09:38:17;;;;;;;3.70;3.30;;;;;;;;;;4976513;28;20031;-60
2023/04/04 09:40:43;;;;;;;4.22;2.60;;;;;;;;;;4959231;28;20034;-60
2023/04/04 09:43:10;;;;;;;2.00;1.90;;;;;;;;;;4976396;28;20042;-60
2023/04/04 09:45:38;;;;;;;2.55;1.95;;;;;;;;;;4976411;28;20086;-60
2023/04/04 09:48:05;;;;;;;2.22;1.85;;;;;;;;;;4976205;28;20089;-60
2023/04/04 09:50:32;;;;;;;2.40;2.20;;;;;;;;;;4976324;28;20532;-60
2023/04/04 09:52:59;;;;;;;2.53;2.33;;;;;;;;;;4976265;28;20389;-60
2023/04/04 09:55:32;;;;;;;2.67;2.00;;;;;;;;;;4976246;28;20085;-60
2023/04/04 09:57:58;;;;;;;2.58;1.90;;;;;;;;;;4958689;28;20049;-60
2023/04/04 10:00:27;;;;;;;2.92;1.85;;;;;;;;;;4976028;28;20035;-60
2023/04/04 10:02:57;;;;;;;1.70;1.55;;;;;;;;;;4976046;28;20030;-60
2023/04/04 10:05:22;;;;;;;3.17;1.80;;;;;;;;;;4976315;28;20389;-60
2023/04/04 10:07:48;;;;;;;1.90;1.80;;;;;;;;;;4976455;28;20022;-60
2023/04/04 10:10:14;;;;;;;2.95;2.65;;;;;;;;;;4975984;28;20034;-60
2023/04/04 10:12:44;;;;;;;3.55;1.90;;;;;;;;;;4975866;28;20018;-60
2023/04/04 10:15:10;;;;;;;3.58;2.55;;;;;;;;;;4975894;28;20026;-60
2023/04/04 10:17:36;;;;;;;1.67;1.58;;;;;;;;;;4958533;28;20350;-60
2023/04/04 10:20:04;;;;;;;2.35;2.00;;;;;;;;;;4975731;28;20331;-60
2023/04/04 10:22:30;;;;;;;1.70;1.60;;;;;;;;;;4975766;28;20037;-60
2023/04/04 10:24:57;;;;;;;2.53;2.25;;;;;;;;;;4975679;28;20126;-60
2023/04/04 10:27:23;;;;;;;3.17;1.92;;;;;;;;;;4974587;28;20026;-60
2023/04/04 10:29:48;;;;;;;3.63;1.70;;;;;;;;;;4975576;28;20466;-60
2023/04/04 10:32:16;;;;;;;2.70;2.00;;;;;;;;;;4975480;28;20034;-60
2023/04/04 10:34:43;;;;;;;3.03;1.98;;;;;;;;;;4975485;28;20481;-60
2023/04/04 10:37:13;;;;;;;4.00;3.30;;;;;;;;;;4975418;28;20504;-60
2023/04/04 10:39:49;;;;;;;3.17;2.00;;;;;;;;;;4975378;28;20027;-59
2023/04/04 10:42:17;;;;;;;7.40;2.70;;;;;;;;;;4975276;28;20039;-59
2023/04/04 10:44:43;;;;;;;4.00;3.38;;;;;;;;;;4975277;28;20117;-59
2023/04/04 10:47:21;;;;;;;9.07;6.88;;;;;;;;;;4975140;28;20031;-59
2023/04/04 10:49:48;;;;;;;3.67;3.25;;;;;;;;;;4975153;28;20393;-59
2023/04/04 10:52:14;;;;;;;3.50;3.03;;;;;;;;;;4975147;28;20023;-59
2023/04/04 10:54:41;;;;;;;2.67;2.20;;;;;;;;;;4975115;28;20031;-59
2023/04/04 10:57:06;;;;;;;2.47;1.90;;;;;;;;;;4975039;28;20465;-59
2023/04/04 10:59:31;;;;;;;2.03;1.92;;;;;;;;;;4974943;28;20047;-59
2023/04/04 11:01:58;;;;;;;2.58;2.20;;;;;;;;;;4975013;28;20451;-59
2023/04/04 11:04:37;;;;;;;2.22;2.03;;;;;;;;;;4974942;28;20038;-59
2023/04/04 11:07:09;;;;;;;2.20;2.00;;;;;;;;;;4974858;28;20031;-60
2023/04/04 11:09:54;;;;;;;2.78;1.63;;;;;;;;;;4957732;28;20062;-59
2023/04/04 11:12:30;;;;;;;2.38;2.17;;;;;;;;;;4974859;28;20042;-59
2023/04/04 11:14:55;;;;;;;3.05;2.10;;;;;;;;;;4974845;28;20113;-59
2023/04/04 11:17:43;;;;;;;2.38;2.05;;;;;;;;;;4974802;28;20120;-59
2023/04/04 11:20:09;;;;;;;2.17;1.98;;;;;;;;;;4974761;28;20466;-59
2023/04/04 11:22:35;;;;;;;2.25;1.50;;;;;;;;;;4974689;28;20027;-60
2023/04/04 11:25:20;;;;;;;3.90;1.88;;;;;;;;;;4974789;28;20151;-59
2023/04/04 11:27:45;;;;;;;2.38;1.83;;;;;;;;;;4974513;28;20034;-68
2023/04/04 11:30:14;;;;;;;2.13;1.55;;;;;;;;;;4974783;28;20015;-69
2023/04/04 11:32:43;;;;;;;2.20;2.00;;;;;;;;;;4974719;28;20030;-67
2023/04/04 11:35:08;;;;;;;2.28;2.03;;;;;;;;;;4974660;28;20038;-69
2023/04/04 11:37:42;;;;;;;1.80;1.65;;;;;;;;;;4974589;28;20041;-68
2023/04/04 11:40:12;;;;;;;2.83;2.45;;;;;;;;;;4974300;28;20581;-68
2023/04/04 11:42:38;;;;;;;6.40;4.47;;;;;;;;;;4974581;28;20481;-69
2023/04/04 11:45:05;;;;;;;3.58;3.20;;;;;;;;;;4974409;28;20117;-68
2023/04/04 11:47:31;;;;;;;2.92;2.05;;;;;;;;;;4973367;28;20102;-68
2023/04/04 11:49:59;;;;;;;2.13;1.92;;;;;;;;;;4974576;28;20058;-68
2023/04/04 11:52:33;;;;;;;4.82;3.33;;;;;;;;;;4973225;28;20031;-68
2023/04/04 11:54:59;;;;;;;3.92;2.22;;;;;;;;;;4974601;28;20358;-68
2023/04/04 11:57:32;;;;;;;2.47;2.28;;;;;;;;;;4957128;28;20050;-68
2023/04/04 11:59:58;;;;;;;1.33;1.23;;;;;;;;;;4974372;28;20081;-68
2023/04/04 12:02:30;;;;;;;2.08;1.98;;;;;;;;;;4974428;28;20058;-68
2023/04/04 12:05:05;;;;;;;2.75;1.90;;;;;;;;;;4985580;23;20039;-68
2023/04/04 12:07:32;;;;;;;5.68;4.47;;;;;;;;;;5060527;23;20056;-59
2023/04/04 12:10:12;;;;;;;4.45;3.67;;;;;;;;;;5044504;23;20061;-68
2023/04/04 12:12:38;;;;;;;6.80;3.63;;;;;;;;;;5014902;23;20062;-59
2023/04/04 12:15:05;;;;;;;6.47;4.03;;;;;;;;;;5042057;23;20403;-68
2023/04/04 12:17:30;;;;;;;7.57;3.78;;;;;;;;;;5033557;28;20029;-68
2023/04/04 12:19:56;;;;;;;20.23;8.38;;;;;;;;;;5033200;28;20045;-59
2023/04/04 12:22:21;;;;;;;4.03;2.90;;;;;;;;;;5033506;28;20021;-68
2023/04/04 12:24:46;;;;;;;3.15;2.10;;;;;;;;;;5044840;23;20061;-68
2023/04/04 12:27:12;;;;;;;3.60;2.53;;;;;;;;;;5033630;28;20437;-59
2023/04/04 12:29:37;;;;;;;3.42;2.38;;;;;;;;;;5033110;28;20479;-59
2023/04/04 12:32:05;;;;;;;4.13;2.40;;;;;;;;;;5033394;28;20025;-59
2023/04/04 12:34:31;;;;;;;17.00;10.95;;;;;;;;;;5033645;28;20034;-59
2023/04/04 12:36:57;;;;;;;2.95;2.22;;;;;;;;;;5033058;28;20025;-59
2023/04/04 12:39:27;;;;;;;5.15;4.10;;;;;;;;;;5033050;28;20044;-59
2023/04/04 12:41:58;;;;;;;5.07;4.03;;;;;;;;;;5031770;28;20499;-59
2023/04/04 12:44:26;;;;;;;3.50;2.47;;;;;;;;;;5033267;28;20029;-59
2023/04/04 12:46:55;;;;;;;11.32;5.05;;;;;;;;;;5033448;28;20053;-59
2023/04/04 12:49:21;;;;;;;4.47;3.33;;;;;;;;;;5031697;28;20025;-59
2023/04/04 12:51:46;;;;;;;3.95;2.40;;;;;;;;;;5035587;28;20032;-59
2023/04/04 12:54:24;;;;;;;4.82;3.53;;;;;;;;;;5036706;28;20031;-58
2023/04/04 12:56:53;;;;;;;6.95;3.40;;;;;;;;;;5035140;28;20048;-59
2023/04/04 12:59:20;;;;;;;4.95;3.30;;;;;;;;;;5035135;28;20071;-59
2023/04/04 13:01:45;;;;;;;3.05;2.75;;;;;;;;;;5036350;28;20033;-58
2023/04/04 13:04:16;;;;;;;4.70;2.45;;;;;;;;;;5036538;28;20044;-59
2023/04/04 13:06:41;;;;;;;;;;;;;;;;;;5037126;28;20032;-59
2023/04/04 13:09:14;;;;;;;3.80;2.47;;;;;;;;;;5036192;28;19913;-59
2023/04/04 13:11:57;;;;;;;5.55;3.13;;;;;;;;;;5036112;28;20684;-59
2023/04/04 13:14:23;;;;;;;5.30;3.50;;;;;;;;;;5036617;28;20403;-58
2023/04/04 13:17:09;;;;;;;7.45;4.68;;;;;;;;;;5036017;28;20029;-58
2023/04/04 13:19:34;;;;;;;7.28;3.50;;;;;;;;;;5035897;28;20041;-59
2023/04/04 13:22:00;;;;;;;14.43;7.40;;;;;;;;;;5035833;28;20459;-59
2023/04/04 13:24:25;;;;;;;6.90;4.28;;;;;;;;;;5035653;28;20116;-58
2023/04/04 13:26:51;;;;;;;5.13;4.60;;;;;;;;;;5036025;28;20034;-58
2023/04/04 13:29:16;;;;;;;4.93;2.88;;;;;;;;;;5035818;28;20105;-59
2023/04/04 13:31:41;;;;;;;7.53;4.90;;;;;;;;;;5035785;28;20472;-68
2023/04/04 13:34:07;;;;;;;8.10;4.10;;;;;;;;;;5036009;28;20040;-68
2023/04/04 13:36:32;;;;;;;3.40;3.10;;;;;;;;;;5035957;28;20017;-68
2023/04/04 13:38:57;;;;;;;10.70;7.82;;;;;;;;;;5035652;28;20040;-67
2023/04/04 13:41:23;;;;;;;9.50;6.82;;;;;;;;;;5035901;28;20075;-67
2023/04/04 13:43:49;;;;;;;9.38;7.60;;;;;;;;;;5035782;28;20080;-67
2023/04/04 13:46:14;;;;;;;11.45;8.13;;;;;;;;;;5035254;28;20033;-67
2023/04/04 13:48:40;;;;;;;7.13;5.00;;;;;;;;;;5034963;28;20087;-68
2023/04/04 13:51:06;;;;;;;2.55;2.28;;;;;;;;;;5033274;28;20030;-67
2023/04/04 13:53:31;;;;;;;9.95;6.47;;;;;;;;;;5033497;28;20032;-68
2023/04/04 13:55:56;;;;;;;4.78;3.85;;;;;;;;;;5034118;28;20041;-67
2023/04/04 13:58:22;;;;;;;5.90;4.68;;;;;;;;;;5034051;28;20029;-68
2023/04/04 14:00:47;;;;;;;6.90;5.50;;;;;;;;;;5016354;28;20039;-67
2023/04/04 14:03:13;;;;;;;4.88;3.78;;;;;;;;;;5033841;28;20162;-68
2023/04/04 14:05:38;;;;;;;4.03;3.20;;;;;;;;;;5016639;28;20033;-68
2023/04/04 14:08:03;;;;;;;4.05;2.95;;;;;;;;;;5032204;28;20025;-68
2023/04/04 14:10:28;;;;;;;3.47;2.47;;;;;;;;;;5031798;28;20128;-67
2023/04/04 14:12:54;;;;;;;6.80;3.38;;;;;;;;;;5034003;28;20014;-68
2023/04/04 14:15:19;;;;;;;5.35;3.80;;;;;;;;;;5034239;28;20440;-68
2023/04/04 14:17:44;;;;;;;5.82;3.95;;;;;;;;;;5034325;28;20031;-67
2023/04/04 14:20:10;;;;;;;25.35;14.40;;;;;;;;;;5034345;28;20438;-67
2023/04/04 14:22:35;;;;;;;5.03;3.55;;;;;;;;;;5034668;28;20353;-67
2023/04/04 14:25:01;;;;;;;13.95;7.07;;;;;;;;;;5034870;28;20048;-67
2023/04/04 14:27:26;;;;;;;8.52;5.15;;;;;;;;;;5034625;28;20041;-68
2023/04/04 14:29:52;;;;;;;4.43;3.28;;;;;;;;;;5034957;28;20133;-67
2023/04/04 14:32:20;;;;;;;15.23;7.53;;;;;;;;;;5034612;28;20444;-67
2023/04/04 14:34:45;;;;;;;5.60;3.40;;;;;;;;;;5034849;28;20053;-68
2023/04/04 14:37:11;;;;;;;3.78;3.13;;;;;;;;;;5034508;28;20028;-67
2023/04/04 14:39:36;;;;;;;3.03;2.83;;;;;;;;;;5034487;28;20195;-67
2023/04/04 14:42:01;;;;;;;21.20;9.70;;;;;;;;;;5034419;28;20487;-68
2023/04/04 14:44:27;;;;;;;4.10;3.15;;;;;;;;;;5034634;28;20042;-67